Alpine, WY

9:51 PM MDT on September 22, 2014 (GMT -0600)
One Mile South of | Change Station
CLOSE
Current Station
Personal Weather Station
Location: Alpine, WY
Elevation: 5650 ft
Nearby Weather Stations

Elev 5650 ft 43.16 °N, 111.03 °W | Updated 8 seconds ago

Overcast
Overcast
54.1 °F
Feels Like 54.1 °F
N
0.0
Wind Variable Wind from NE
Gusts 2.0 mph

Today
High -- | Low -- °F
--% Chance of Precip.
Yesterday
High -- | Low -- °F
Precip. -- in
7:11 AM 7:21 PM
Waning Crescent, 1% visible
Pressure 30.22 in
Visibility 10.0 miles
Clouds Scattered Clouds 4400 ft
Mostly Cloudy 5000 ft
Overcast 6500 ft
Dew Point 52 °F
Humidity 92%
Rainfall 0.27 in
Snow Depth 1 in , 0 in , 0 in
UV 0.0 out of 12
Pollen 5.30 out of 12
Air Quality Not available.
Flu Activity Not available.
METAR KAFO 230335Z AUTO 00000KT 10SM SCT044 BKN050 OVC065 10/08 A3022 RMK AO2

More Conditions Fewer Conditions

Pressure 30.22 in
Visibility 10.0 miles
Clouds Scattered Clouds 4400 ft
Mostly Cloudy 5000 ft
Overcast 6500 ft
Dew Point 52 °F
Humidity 92%
Rainfall 0.27 in
Snow Depth 1 in , 0 in , 0 in
UV 0.0 out of 12
Pollen 5.30 out of 12
Air Quality Not available.
Flu Activity Not available.
METAR KAFO 230335Z AUTO 00000KT 10SM SCT044 BKN050 OVC065 10/08 A3022 RMK AO2

More Conditions Fewer Conditions

10-Day Weather Forecast

Almanac

Astronomy

Sep. 22, 2014 Rise Set
Actual Time 7:11 AM MDT 7:21 PM MDT
Civil Twilight 6:43 AM MDT 7:49 PM MDT
Nautical Twilight 6:09 AM MDT 8:22 PM MDT
Astronomical Twilight 5:35 AM MDT 8:56 PM MDT
Moon 5:41 AM MDT (9/22) 6:31 PM MDT (9/22)
Length of Visible Light 13h 06m
Length of Day
12h 09m
Tomorrow will be 2m 55s shorter.
Waning Crescent, 1% of the Moon is Illuminated
Today
Waning Crescent
Sep 24
New
Oct 1
First Quarter
Oct 8
Full
Oct 15
Last Quarter

Today's Extremes

State Highs State Lows

Community

WunderPhotos

Upload Photos

1,755,606 photos uploaded!

Nearby

Snow Depth

Station Depth Elevation
Big Sandy Opening 1 in 9080 ft
Lewis Lake Divide 0 in 7850 ft
Casper Mountain 0 in 7850 ft
St. Lawrence Alt 0 in 8620 ft
Evening Star 0 in 9200 ft

Earthquake Activity

City Distance Mag. Time & Date
No recent earthquake activity has been reported nearby.
Minimum magnitude displayed is 2.5.

Coastal Water Temperatures

Place Temperature
No Stations Reporting

Nearby Weather Stations